sensor_id;sensor_type;location;lat;lon;timestamp;temperature;humidity
39975;DHT22;25652;52.852;6.602;2023-04-04T08:46:44;16.30;52.90
39975;DHT22;25652;52.852;6.602;2023-04-04T08:49:12;15.60;53.50
39975;DHT22;25652;52.852;6.602;2023-04-04T08:51:38;15.20;55.10
39975;DHT22;25652;52.852;6.602;2023-04-04T08:54:04;14.90;56.10
39975;DHT22;25652;52.852;6.602;2023-04-04T08:56:31;14.70;57.30
39975;DHT22;25652;52.852;6.602;2023-04-04T08:58:57;14.60;57.30
39975;DHT22;25652;52.852;6.602;2023-04-04T09:01:23;14.50;57.50
39975;DHT22;25652;52.852;6.602;2023-04-04T09:03:49;14.50;57.80
39975;DHT22;25652;52.852;6.602;2023-04-04T09:06:17;14.40;58.00
39975;DHT22;25652;52.852;6.602;2023-04-04T09:08:43;14.40;58.20
39975;DHT22;25652;52.852;6.602;2023-04-04T09:11:11;14.40;58.30
39975;DHT22;25652;52.852;6.602;2023-04-04T09:13:37;14.40;58.40
39975;DHT22;25652;52.852;6.602;2023-04-04T09:16:03;14.40;58.90
39975;DHT22;25652;52.852;6.602;2023-04-04T09:18:28;14.40;58.70
39975;DHT22;25652;52.852;6.602;2023-04-04T09:20:54;14.40;58.80
39975;DHT22;25652;52.852;6.602;2023-04-04T09:23:20;14.40;59.10
39975;DHT22;25652;52.852;6.602;2023-04-04T09:25:47;14.40;58.90
39975;DHT22;25652;52.852;6.602;2023-04-04T09:28:17;14.30;59.60
39975;DHT22;25652;52.852;6.602;2023-04-04T09:30:42;14.40;59.60
39975;DHT22;25652;52.852;6.602;2023-04-04T09:33:10;14.40;59.70
39975;DHT22;25652;52.852;6.602;2023-04-04T09:35:37;14.40;59.00
39975;DHT22;25652;52.852;6.602;2023-04-04T09:38:08;14.30;59.00
39975;DHT22;25652;52.852;6.602;2023-04-04T09:40:35;14.30;59.70
39975;DHT22;25652;52.852;6.602;2023-04-04T09:43:02;14.40;60.00
39975;DHT22;25652;52.852;6.602;2023-04-04T09:45:30;14.40;60.00
39975;DHT22;25652;52.852;6.602;2023-04-04T09:47:56;14.50;59.90
39975;DHT22;25652;52.852;6.602;2023-04-04T09:50:23;14.50;60.00
39975;DHT22;25652;52.852;6.602;2023-04-04T09:52:55;14.50;60.20
39975;DHT22;25652;52.852;6.602;2023-04-04T09:55:34;14.50;58.70
39975;DHT22;25652;52.852;6.602;2023-04-04T09:58:12;14.40;59.00
39975;DHT22;25652;52.852;6.602;2023-04-04T10:00:45;14.40;59.60
39975;DHT22;25652;52.852;6.602;2023-04-04T10:03:13;14.30;59.90
39975;DHT22;25652;52.852;6.602;2023-04-04T10:05:39;14.30;60.30
39975;DHT22;25652;52.852;6.602;2023-04-04T10:08:20;14.30;60.50
39975;DHT22;25652;52.852;6.602;2023-04-04T10:10:55;14.20;60.70
39975;DHT22;25652;52.852;6.602;2023-04-04T10:15:51;14.20;61.00
39975;DHT22;25652;52.852;6.602;2023-04-04T10:18:18;14.20;61.00
39975;DHT22;25652;52.852;6.602;2023-04-04T10:20:43;14.20;61.20
39975;DHT22;25652;52.852;6.602;2023-04-04T10:23:10;14.20;61.40
39975;DHT22;25652;52.852;6.602;2023-04-04T10:25:37;14.20;61.80
39975;DHT22;25652;52.852;6.602;2023-04-04T10:28:02;14.20;62.50
39975;DHT22;25652;52.852;6.602;2023-04-04T10:30:28;14.30;63.60
39975;DHT22;25652;52.852;6.602;2023-04-04T10:33:05;14.40;62.90
39975;DHT22;25652;52.852;6.602;2023-04-04T10:35:31;14.40;62.80
39975;DHT22;25652;52.852;6.602;2023-04-04T10:38:00;14.50;62.80
39975;DHT22;25652;52.852;6.602;2023-04-04T10:40:30;14.50;62.70
39975;DHT22;25652;52.852;6.602;2023-04-04T10:42:57;14.50;62.70
39975;DHT22;25652;52.852;6.602;2023-04-04T10:45:24;14.50;62.80
39975;DHT22;25652;52.852;6.602;2023-04-04T10:47:50;14.50;62.60
39975;DHT22;25652;52.852;6.602;2023-04-04T10:50:19;14.50;62.70
39975;DHT22;25652;52.852;6.602;2023-04-04T10:52:44;14.50;62.70
39975;DHT22;25652;52.852;6.602;2023-04-04T10:55:12;14.60;62.50
39975;DHT22;25652;52.852;6.602;2023-04-04T10:57:44;14.60;62.60
39975;DHT22;25652;52.852;6.602;2023-04-04T11:00:13;14.60;62.60
39975;DHT22;25652;52.852;6.602;2023-04-04T11:02:49;14.50;47.90
39975;DHT22;25652;52.852;6.602;2023-04-04T11:08:03;14.10;47.20
39975;DHT22;25652;52.852;6.602;2023-04-04T11:10:37;14.00;53.50
39975;DHT22;25652;52.852;6.602;2023-04-04T11:13:14;14.10;56.50
39975;DHT22;25652;52.852;6.602;2023-04-04T11:18:18;14.20;56.80
39975;DHT22;25652;52.852;6.602;2023-04-04T11:20:46;14.20;56.90
39975;DHT22;25652;52.852;6.602;2023-04-04T11:23:19;14.20;57.00
39975;DHT22;25652;52.852;6.602;2023-04-04T11:25:55;14.30;57.30
39975;DHT22;25652;52.852;6.602;2023-04-04T11:28:27;14.30;57.40
39975;DHT22;25652;52.852;6.602;2023-04-04T11:39:20;14.40;58.10
39975;DHT22;25652;52.852;6.602;2023-04-04T11:44:22;14.40;58.20
39975;DHT22;25652;52.852;6.602;2023-04-04T11:49:37;14.40;58.50
39975;DHT22;25652;52.852;6.602;2023-04-04T11:52:04;14.30;47.10
39975;DHT22;25652;52.852;6.602;2023-04-04T11:54:30;14.20;53.10
39975;DHT22;25652;52.852;6.602;2023-04-04T11:56:56;14.20;56.80
39975;DHT22;25652;52.852;6.602;2023-04-04T11:59:21;14.20;57.40
39975;DHT22;25652;52.852;6.602;2023-04-04T12:01:47;14.20;57.30
39975;DHT22;25652;52.852;6.602;2023-04-04T12:04:16;14.20;57.40
39975;DHT22;25652;52.852;6.602;2023-04-04T12:06:42;14.20;57.50
39975;DHT22;25652;52.852;6.602;2023-04-04T12:09:09;14.30;57.70
39975;DHT22;25652;52.852;6.602;2023-04-04T12:11:35;14.20;57.90
39975;DHT22;25652;52.852;6.602;2023-04-04T12:14:01;14.30;58.10
39975;DHT22;25652;52.852;6.602;2023-04-04T12:16:27;14.30;58.10
39975;DHT22;25652;52.852;6.602;2023-04-04T12:18:53;14.30;58.20
39975;DHT22;25652;52.852;6.602;2023-04-04T12:21:19;14.20;58.30
39975;DHT22;25652;52.852;6.602;2023-04-04T12:23:47;14.20;58.50
39975;DHT22;25652;52.852;6.602;2023-04-04T12:26:14;14.30;58.80
39975;DHT22;25652;52.852;6.602;2023-04-04T12:28:41;14.20;58.90
39975;DHT22;25652;52.852;6.602;2023-04-04T12:31:08;14.20;59.00
39975;DHT22;25652;52.852;6.602;2023-04-04T12:33:34;14.20;59.10
39975;DHT22;25652;52.852;6.602;2023-04-04T12:36:01;14.20;59.30
39975;DHT22;25652;52.852;6.602;2023-04-04T12:38:26;14.20;59.50
39975;DHT22;25652;52.852;6.602;2023-04-04T12:40:52;14.10;59.60
39975;DHT22;25652;52.852;6.602;2023-04-04T12:43:18;14.10;59.60
39975;DHT22;25652;52.852;6.602;2023-04-04T12:45:43;14.10;59.70
39975;DHT22;25652;52.852;6.602;2023-04-04T12:48:11;14.10;59.90
39975;DHT22;25652;52.852;6.602;2023-04-04T12:50:54;14.10;60.00
39975;DHT22;25652;52.852;6.602;2023-04-04T12:53:27;14.20;60.20
39975;DHT22;25652;52.852;6.602;2023-04-04T12:55:54;14.10;60.30
39975;DHT22;25652;52.852;6.602;2023-04-04T12:58:21;14.20;60.50
39975;DHT22;25652;52.852;6.602;2023-04-04T13:00:51;14.10;60.40
39975;DHT22;25652;52.852;6.602;2023-04-04T13:03:21;14.10;60.50
39975;DHT22;25652;52.852;6.602;2023-04-04T13:05:47;14.10;60.60
39975;DHT22;25652;52.852;6.602;2023-04-04T13:08:13;14.10;60.90
39975;DHT22;25652;52.852;6.602;2023-04-04T13:10:58;14.10;60.80
39975;DHT22;25652;52.852;6.602;2023-04-04T13:13:37;14.10;60.80
39975;DHT22;25652;52.852;6.602;2023-04-04T13:16:05;14.10;61.10
39975;DHT22;25652;52.852;6.602;2023-04-04T13:18:33;14.10;61.10
39975;DHT22;25652;52.852;6.602;2023-04-04T13:20:58;14.10;61.20
39975;DHT22;25652;52.852;6.602;2023-04-04T13:23:24;14.10;61.30
39975;DHT22;25652;52.852;6.602;2023-04-04T13:25:49;14.10;61.30
39975;DHT22;25652;52.852;6.602;2023-04-04T13:28:15;14.10;61.40
39975;DHT22;25652;52.852;6.602;2023-04-04T13:30:41;14.10;61.60
39975;DHT22;25652;52.852;6.602;2023-04-04T13:33:06;14.10;61.60
39975;DHT22;25652;52.852;6.602;2023-04-04T13:35:31;14.10;61.70
39975;DHT22;25652;52.852;6.602;2023-04-04T13:37:57;14.10;61.70
39975;DHT22;25652;52.852;6.602;2023-04-04T13:40:22;14.00;61.80
39975;DHT22;25652;52.852;6.602;2023-04-04T13:42:48;14.10;61.90
39975;DHT22;25652;52.852;6.602;2023-04-04T13:45:13;14.10;62.00
39975;DHT22;25652;52.852;6.602;2023-04-04T13:47:39;14.10;62.10
39975;DHT22;25652;52.852;6.602;2023-04-04T13:50:05;14.10;62.10
39975;DHT22;25652;52.852;6.602;2023-04-04T13:52:31;14.00;62.10
39975;DHT22;25652;52.852;6.602;2023-04-04T13:54:56;14.10;62.30
39975;DHT22;25652;52.852;6.602;2023-04-04T13:57:22;14.10;62.30
39975;DHT22;25652;52.852;6.602;2023-04-04T13:59:47;14.00;62.30
39975;DHT22;25652;52.852;6.602;2023-04-04T14:02:13;14.10;62.50
39975;DHT22;25652;52.852;6.602;2023-04-04T14:04:38;14.00;62.50
39975;DHT22;25652;52.852;6.602;2023-04-04T14:07:04;14.00;62.50
39975;DHT22;25652;52.852;6.602;2023-04-04T14:09:29;14.00;62.50
39975;DHT22;25652;52.852;6.602;2023-04-04T14:11:55;14.00;62.70
39975;DHT22;25652;52.852;6.602;2023-04-04T14:14:20;14.00;62.60
39975;DHT22;25652;52.852;6.602;2023-04-04T14:16:46;14.00;62.60
39975;DHT22;25652;52.852;6.602;2023-04-04T14:19:11;14.00;62.70
39975;DHT22;25652;52.852;6.602;2023-04-04T14:21:37;14.00;62.80
39975;DHT22;25652;52.852;6.602;2023-04-04T14:24:02;14.00;62.90
39975;DHT22;25652;52.852;6.602;2023-04-04T14:26:28;14.10;63.00
39975;DHT22;25652;52.852;6.602;2023-04-04T14:28:53;14.10;62.90
39975;DHT22;25652;52.852;6.602;2023-04-04T14:31:19;14.00;62.90
39975;DHT22;25652;52.852;6.602;2023-04-04T14:33:44;14.00;63.00
39975;DHT22;25652;52.852;6.602;2023-04-04T14:36:10;14.00;63.10
39975;DHT22;25652;52.852;6.602;2023-04-04T14:38:35;14.00;63.10
39975;DHT22;25652;52.852;6.602;2023-04-04T14:41:00;14.00;63.20
39975;DHT22;25652;52.852;6.602;2023-04-04T14:43:26;14.00;63.20
39975;DHT22;25652;52.852;6.602;2023-04-04T14:45:52;14.00;63.30
39975;DHT22;25652;52.852;6.602;2023-04-04T14:48:17;14.00;63.30
39975;DHT22;25652;52.852;6.602;2023-04-04T14:50:45;14.00;63.40
39975;DHT22;25652;52.852;6.602;2023-04-04T14:53:11;14.10;63.70
39975;DHT22;25652;52.852;6.602;2023-04-04T14:55:37;14.00;64.00
39975;DHT22;25652;52.852;6.602;2023-04-04T14:58:02;14.10;64.20
39975;DHT22;25652;52.852;6.602;2023-04-04T15:00:28;14.10;64.40
39975;DHT22;25652;52.852;6.602;2023-04-04T15:02:53;14.10;64.60
39975;DHT22;25652;52.852;6.602;2023-04-04T15:05:19;14.10;64.80
39975;DHT22;25652;52.852;6.602;2023-04-04T15:07:45;14.10;65.00
39975;DHT22;25652;52.852;6.602;2023-04-04T15:10:12;14.00;65.00
39975;DHT22;25652;52.852;6.602;2023-04-04T15:12:37;14.10;65.10
39975;DHT22;25652;52.852;6.602;2023-04-04T15:15:03;14.10;65.10
39975;DHT22;25652;52.852;6.602;2023-04-04T15:17:29;14.10;64.90
39975;DHT22;25652;52.852;6.602;2023-04-04T15:19:54;14.20;64.60
39975;DHT22;25652;52.852;6.602;2023-04-04T15:22:20;14.30;64.60
39975;DHT22;25652;52.852;6.602;2023-04-04T15:24:45;14.30;64.70
39975;DHT22;25652;52.852;6.602;2023-04-04T15:27:11;14.40;64.60
39975;DHT22;25652;52.852;6.602;2023-04-04T15:29:36;14.40;64.70
39975;DHT22;25652;52.852;6.602;2023-04-04T15:32:02;14.50;65.00
39975;DHT22;25652;52.852;6.602;2023-04-04T15:34:27;14.50;63.10
39975;DHT22;25652;52.852;6.602;2023-04-04T15:36:53;14.60;63.60
39975;DHT22;25652;52.852;6.602;2023-04-04T15:39:18;14.70;63.10
39975;DHT22;25652;52.852;6.602;2023-04-04T15:41:43;14.70;63.00
39975;DHT22;25652;52.852;6.602;2023-04-04T15:44:09;14.70;62.90
39975;DHT22;25652;52.852;6.602;2023-04-04T15:46:34;14.80;62.70
39975;DHT22;25652;52.852;6.602;2023-04-04T15:49:00;14.80;63.10
39975;DHT22;25652;52.852;6.602;2023-04-04T15:51:26;14.90;63.30
39975;DHT22;25652;52.852;6.602;2023-04-04T15:53:52;14.90;63.50
39975;DHT22;25652;52.852;6.602;2023-04-04T15:56:18;14.90;64.00
39975;DHT22;25652;52.852;6.602;2023-04-04T15:58:44;14.90;64.20
39975;DHT22;25652;52.852;6.602;2023-04-04T16:01:09;15.00;64.00
39975;DHT22;25652;52.852;6.602;2023-04-04T16:03:35;15.00;64.80
39975;DHT22;25652;52.852;6.602;2023-04-04T16:06:00;15.10;63.50
39975;DHT22;25652;52.852;6.602;2023-04-04T16:08:26;15.10;64.40
39975;DHT22;25652;52.852;6.602;2023-04-04T16:10:51;15.20;66.20
39975;DHT22;25652;52.852;6.602;2023-04-04T16:13:17;15.30;67.00
39975;DHT22;25652;52.852;6.602;2023-04-04T16:15:42;15.30;66.80
39975;DHT22;25652;52.852;6.602;2023-04-04T16:18:08;15.40;67.30
39975;DHT22;25652;52.852;6.602;2023-04-04T16:20:34;15.40;67.30
39975;DHT22;25652;52.852;6.602;2023-04-04T16:22:59;15.40;68.00
39975;DHT22;25652;52.852;6.602;2023-04-04T16:25:25;15.50;67.80
39975;DHT22;25652;52.852;6.602;2023-04-04T16:27:50;15.50;67.80
39975;DHT22;25652;52.852;6.602;2023-04-04T16:30:16;15.50;68.00
39975;DHT22;25652;52.852;6.602;2023-04-04T16:32:41;15.50;68.70
39975;DHT22;25652;52.852;6.602;2023-04-04T16:35:10;15.50;68.30
39975;DHT22;25652;52.852;6.602;2023-04-04T16:37:35;15.50;68.10
39975;DHT22;25652;52.852;6.602;2023-04-04T16:40:01;15.50;68.10
39975;DHT22;25652;52.852;6.602;2023-04-04T16:42:26;15.50;68.00
39975;DHT22;25652;52.852;6.602;2023-04-04T16:44:52;15.60;68.80
39975;DHT22;25652;52.852;6.602;2023-04-04T16:47:17;15.60;69.00
39975;DHT22;25652;52.852;6.602;2023-04-04T16:49:43;15.60;70.00
39975;DHT22;25652;52.852;6.602;2023-04-04T16:52:09;15.60;69.90
39975;DHT22;25652;52.852;6.602;2023-04-04T16:54:35;15.50;69.70
39975;DHT22;25652;52.852;6.602;2023-04-04T16:57:01;15.50;68.80
39975;DHT22;25652;52.852;6.602;2023-04-04T16:59:26;15.50;69.70
39975;DHT22;25652;52.852;6.602;2023-04-04T17:01:52;15.50;69.50
39975;DHT22;25652;52.852;6.602;2023-04-04T17:04:17;15.50;69.20
39975;DHT22;25652;52.852;6.602;2023-04-04T17:06:43;15.50;69.00
39975;DHT22;25652;52.852;6.602;2023-04-04T17:09:08;15.50;68.70
39975;DHT22;25652;52.852;6.602;2023-04-04T17:11:34;15.50;69.60
39975;DHT22;25652;52.852;6.602;2023-04-04T17:13:59;15.50;69.60
39975;DHT22;25652;52.852;6.602;2023-04-04T17:16:25;15.40;66.60
39975;DHT22;25652;52.852;6.602;2023-04-04T17:18:51;15.40;68.30
39975;DHT22;25652;52.852;6.602;2023-04-04T17:21:17;15.40;69.40
39975;DHT22;25652;52.852;6.602;2023-04-04T17:23:43;15.40;69.40
39975;DHT22;25652;52.852;6.602;2023-04-04T17:26:09;15.40;69.40
39975;DHT22;25652;52.852;6.602;2023-04-04T17:28:34;15.40;69.50
39975;DHT22;25652;52.852;6.602;2023-04-04T17:31:00;15.40;69.40
39975;DHT22;25652;52.852;6.602;2023-04-04T17:33:25;15.40;70.30
39975;DHT22;25652;52.852;6.602;2023-04-04T17:35:51;15.30;70.20
39975;DHT22;25652;52.852;6.602;2023-04-04T17:38:17;15.30;68.90
39975;DHT22;25652;52.852;6.602;2023-04-04T17:40:42;15.30;67.90
39975;DHT22;25652;52.852;6.602;2023-04-04T17:43:08;15.20;67.10
39975;DHT22;25652;52.852;6.602;2023-04-04T17:45:33;15.10;66.70
39975;DHT22;25652;52.852;6.602;2023-04-04T17:47:59;15.10;66.20
39975;DHT22;25652;52.852;6.602;2023-04-04T17:50:25;15.00;62.40
39975;DHT22;25652;52.852;6.602;2023-04-04T17:52:50;14.90;63.30
39975;DHT22;25652;52.852;6.602;2023-04-04T17:55:16;14.90;62.40
39975;DHT22;25652;52.852;6.602;2023-04-04T17:57:41;14.90;64.20
39975;DHT22;25652;52.852;6.602;2023-04-04T18:00:07;14.80;64.80
39975;DHT22;25652;52.852;6.602;2023-04-04T18:02:33;14.80;65.10
39975;DHT22;25652;52.852;6.602;2023-04-04T18:04:58;14.80;65.00
39975;DHT22;25652;52.852;6.602;2023-04-04T18:07:24;14.80;65.10
39975;DHT22;25652;52.852;6.602;2023-04-04T18:09:49;14.80;64.90
39975;DHT22;25652;52.852;6.602;2023-04-04T18:12:15;14.80;65.30
39975;DHT22;25652;52.852;6.602;2023-04-04T18:14:40;14.80;66.00
39975;DHT22;25652;52.852;6.602;2023-04-04T18:17:06;14.70;65.90
39975;DHT22;25652;52.852;6.602;2023-04-04T18:19:31;14.70;66.10
39975;DHT22;25652;52.852;6.602;2023-04-04T18:21:57;14.70;65.70
39975;DHT22;25652;52.852;6.602;2023-04-04T18:24:22;14.70;65.70
39975;DHT22;25652;52.852;6.602;2023-04-04T18:26:48;14.70;65.80
39975;DHT22;25652;52.852;6.602;2023-04-04T18:29:13;14.70;65.40
39975;DHT22;25652;52.852;6.602;2023-04-04T18:31:39;14.70;65.40
39975;DHT22;25652;52.852;6.602;2023-04-04T18:34:04;14.60;65.50
39975;DHT22;25652;52.852;6.602;2023-04-04T18:36:30;14.60;67.90
39975;DHT22;25652;52.852;6.602;2023-04-04T18:38:55;14.70;66.40
39975;DHT22;25652;52.852;6.602;2023-04-04T18:41:21;14.60;65.70
39975;DHT22;25652;52.852;6.602;2023-04-04T18:43:46;14.60;65.90
39975;DHT22;25652;52.852;6.602;2023-04-04T18:46:12;14.60;66.00
39975;DHT22;25652;52.852;6.602;2023-04-04T18:48:37;14.60;66.30
39975;DHT22;25652;52.852;6.602;2023-04-04T18:51:03;14.50;66.00
39975;DHT22;25652;52.852;6.602;2023-04-04T18:53:28;14.50;66.10
39975;DHT22;25652;52.852;6.602;2023-04-04T18:55:56;14.60;65.60
39975;DHT22;25652;52.852;6.602;2023-04-04T18:58:23;14.50;68.10
39975;DHT22;25652;52.852;6.602;2023-04-04T19:00:48;14.50;69.00
39975;DHT22;25652;52.852;6.602;2023-04-04T19:03:14;14.60;68.70
39975;DHT22;25652;52.852;6.602;2023-04-04T19:05:40;14.50;68.80
39975;DHT22;25652;52.852;6.602;2023-04-04T19:08:11;14.60;68.80
39975;DHT22;25652;52.852;6.602;2023-04-04T19:10:37;14.50;69.00
39975;DHT22;25652;52.852;6.602;2023-04-04T19:13:03;14.50;69.30
39975;DHT22;25652;52.852;6.602;2023-04-04T19:15:28;14.50;70.40
39975;DHT22;25652;52.852;6.602;2023-04-04T19:17:54;14.50;71.20
39975;DHT22;25652;52.852;6.602;2023-04-04T19:20:19;14.50;71.40
39975;DHT22;25652;52.852;6.602;2023-04-04T19:22:45;14.50;71.30
39975;DHT22;25652;52.852;6.602;2023-04-04T19:25:10;14.40;71.10
39975;DHT22;25652;52.852;6.602;2023-04-04T19:27:36;14.40;71.30
39975;DHT22;25652;52.852;6.602;2023-04-04T19:30:11;14.40;71.30
39975;DHT22;25652;52.852;6.602;2023-04-04T19:32:56;14.40;71.40
39975;DHT22;25652;52.852;6.602;2023-04-04T19:40:48;14.40;72.00
39975;DHT22;25652;52.852;6.602;2023-04-04T19:43:18;14.30;72.00
39975;DHT22;25652;52.852;6.602;2023-04-04T19:45:50;14.30;72.10
39975;DHT22;25652;52.852;6.602;2023-04-04T19:53:44;14.30;72.40
39975;DHT22;25652;52.852;6.602;2023-04-04T19:56:12;14.20;73.00
39975;DHT22;25652;52.852;6.602;2023-04-04T19:58:38;14.20;72.50
39975;DHT22;25652;52.852;6.602;2023-04-04T20:01:05;14.20;72.50
39975;DHT22;25652;52.852;6.602;2023-04-04T20:03:32;14.20;72.60
39975;DHT22;25652;52.852;6.602;2023-04-04T20:06:10;14.20;72.50
39975;DHT22;25652;52.852;6.602;2023-04-04T20:08:43;14.20;72.40
39975;DHT22;25652;52.852;6.602;2023-04-04T20:11:10;14.20;72.30
39975;DHT22;25652;52.852;6.602;2023-04-04T20:13:37;14.20;72.30
39975;DHT22;25652;52.852;6.602;2023-04-04T20:16:07;14.10;72.30
39975;DHT22;25652;52.852;6.602;2023-04-04T20:18:35;14.10;72.30
39975;DHT22;25652;52.852;6.602;2023-04-04T20:21:23;14.10;72.30
39975;DHT22;25652;52.852;6.602;2023-04-04T20:23:51;14.10;72.30
39975;DHT22;25652;52.852;6.602;2023-04-04T20:29:11;14.00;72.30
39975;DHT22;25652;52.852;6.602;2023-04-04T20:31:41;14.00;72.20
39975;DHT22;25652;52.852;6.602;2023-04-04T20:34:40;14.00;72.30
39975;DHT22;25652;52.852;6.602;2023-04-04T20:37:12;14.00;72.30
39975;DHT22;25652;52.852;6.602;2023-04-04T20:40:00;14.00;72.20
39975;DHT22;25652;52.852;6.602;2023-04-04T20:44:58;14.00;72.10
39975;DHT22;25652;52.852;6.602;2023-04-04T20:47:28;13.90;72.00
39975;DHT22;25652;52.852;6.602;2023-04-04T20:49:54;13.90;71.90
39975;DHT22;25652;52.852;6.602;2023-04-04T20:52:22;13.90;71.90
39975;DHT22;25652;52.852;6.602;2023-04-04T20:54:48;13.90;71.80
39975;DHT22;25652;52.852;6.602;2023-04-04T20:57:21;13.90;71.70
39975;DHT22;25652;52.852;6.602;2023-04-04T20:59:48;13.80;71.70
39975;DHT22;25652;52.852;6.602;2023-04-04T21:02:15;13.90;71.80
39975;DHT22;25652;52.852;6.602;2023-04-04T21:04:42;13.90;71.80
39975;DHT22;25652;52.852;6.602;2023-04-04T21:07:49;13.80;71.80
39975;DHT22;25652;52.852;6.602;2023-04-04T21:10:23;13.80;71.80
39975;DHT22;25652;52.852;6.602;2023-04-04T21:12:50;13.80;72.00
39975;DHT22;25652;52.852;6.602;2023-04-04T21:15:26;13.80;72.10
39975;DHT22;25652;52.852;6.602;2023-04-04T21:17:53;13.80;72.20
39975;DHT22;25652;52.852;6.602;2023-04-04T21:25:57;13.80;72.40
39975;DHT22;25652;52.852;6.602;2023-04-04T21:28:30;13.80;72.50
39975;DHT22;25652;52.852;6.602;2023-04-04T21:30:56;13.70;72.50
39975;DHT22;25652;52.852;6.602;2023-04-04T21:33:22;13.70;72.60
39975;DHT22;25652;52.852;6.602;2023-04-04T21:35:49;13.70;72.70
39975;DHT22;25652;52.852;6.602;2023-04-04T21:38:30;13.70;72.80
39975;DHT22;25652;52.852;6.602;2023-04-04T21:40:57;13.70;72.70
39975;DHT22;25652;52.852;6.602;2023-04-04T21:43:23;13.70;72.60
39975;DHT22;25652;52.852;6.602;2023-04-04T21:45:48;13.70;72.50
39975;DHT22;25652;52.852;6.602;2023-04-04T21:48:14;13.70;72.50
39975;DHT22;25652;52.852;6.602;2023-04-04T21:50:39;13.60;72.40
39975;DHT22;25652;52.852;6.602;2023-04-04T21:53:05;13.60;72.50
39975;DHT22;25652;52.852;6.602;2023-04-04T21:55:30;13.60;72.50
39975;DHT22;25652;52.852;6.602;2023-04-04T21:57:56;13.60;72.50
39975;DHT22;25652;52.852;6.602;2023-04-04T22:00:21;13.60;72.50
39975;DHT22;25652;52.852;6.602;2023-04-04T22:02:47;13.60;72.50
39975;DHT22;25652;52.852;6.602;2023-04-04T22:05:12;13.60;72.50
39975;DHT22;25652;52.852;6.602;2023-04-04T22:07:38;13.50;72.40
39975;DHT22;25652;52.852;6.602;2023-04-04T22:10:03;13.50;72.50
39975;DHT22;25652;52.852;6.602;2023-04-04T22:12:29;13.50;72.40
39975;DHT22;25652;52.852;6.602;2023-04-04T22:14:55;13.50;72.40
39975;DHT22;25652;52.852;6.602;2023-04-04T22:17:20;13.50;72.40
39975;DHT22;25652;52.852;6.602;2023-04-04T22:19:45;13.50;72.40
39975;DHT22;25652;52.852;6.602;2023-04-04T22:22:11;13.40;72.30
39975;DHT22;25652;52.852;6.602;2023-04-04T22:24:36;13.40;72.30
39975;DHT22;25652;52.852;6.602;2023-04-04T22:27:02;13.40;72.40
39975;DHT22;25652;52.852;6.602;2023-04-04T22:29:27;13.40;72.40
39975;DHT22;25652;52.852;6.602;2023-04-04T22:31:53;13.40;72.40
39975;DHT22;25652;52.852;6.602;2023-04-04T22:34:18;13.40;72.40
39975;DHT22;25652;52.852;6.602;2023-04-04T22:36:44;13.40;72.40
39975;DHT22;25652;52.852;6.602;2023-04-04T22:39:09;13.30;72.30
39975;DHT22;25652;52.852;6.602;2023-04-04T22:41:35;13.30;72.40
39975;DHT22;25652;52.852;6.602;2023-04-04T22:44:00;13.30;72.30
39975;DHT22;25652;52.852;6.602;2023-04-04T22:46:26;13.30;72.50
39975;DHT22;25652;52.852;6.602;2023-04-04T22:48:51;13.30;73.00
39975;DHT22;25652;52.852;6.602;2023-04-04T22:51:17;13.30;72.40
39975;DHT22;25652;52.852;6.602;2023-04-04T22:53:42;13.20;72.40
39975;DHT22;25652;52.852;6.602;2023-04-04T22:56:08;13.20;72.30
39975;DHT22;25652;52.852;6.602;2023-04-04T22:58:33;13.20;72.40
39975;DHT22;25652;52.852;6.602;2023-04-04T23:00:59;13.20;72.30
39975;DHT22;25652;52.852;6.602;2023-04-04T23:03:24;13.20;72.40
39975;DHT22;25652;52.852;6.602;2023-04-04T23:05:50;13.20;72.40
39975;DHT22;25652;52.852;6.602;2023-04-04T23:08:15;13.10;72.40
39975;DHT22;25652;52.852;6.602;2023-04-04T23:10:41;13.10;72.40
39975;DHT22;25652;52.852;6.602;2023-04-04T23:13:06;13.20;72.40
39975;DHT22;25652;52.852;6.602;2023-04-04T23:15:32;13.10;72.40
39975;DHT22;25652;52.852;6.602;2023-04-04T23:17:57;13.10;72.60
39975;DHT22;25652;52.852;6.602;2023-04-04T23:20:23;13.10;72.40
39975;DHT22;25652;52.852;6.602;2023-04-04T23:22:48;13.10;72.40
39975;DHT22;25652;52.852;6.602;2023-04-04T23:25:14;13.10;72.40
39975;DHT22;25652;52.852;6.602;2023-04-04T23:27:39;13.10;72.40
39975;DHT22;25652;52.852;6.602;2023-04-04T23:30:05;13.10;72.40
39975;DHT22;25652;52.852;6.602;2023-04-04T23:32:31;13.10;72.40
39975;DHT22;25652;52.852;6.602;2023-04-04T23:34:57;13.00;72.40
39975;DHT22;25652;52.852;6.602;2023-04-04T23:37:23;13.00;72.40
39975;DHT22;25652;52.852;6.602;2023-04-04T23:39:48;13.00;72.40
39975;DHT22;25652;52.852;6.602;2023-04-04T23:42:14;13.00;72.40
39975;DHT22;25652;52.852;6.602;2023-04-04T23:44:39;13.00;72.40
39975;DHT22;25652;52.852;6.602;2023-04-04T23:47:05;13.00;72.40
39975;DHT22;25652;52.852;6.602;2023-04-04T23:49:30;13.00;72.40
39975;DHT22;25652;52.852;6.602;2023-04-04T23:51:56;13.00;72.40
39975;DHT22;25652;52.852;6.602;2023-04-04T23:54:22;12.90;72.40
39975;DHT22;25652;52.852;6.602;2023-04-04T23:56:47;12.90;72.50
39975;DHT22;25652;52.852;6.602;2023-04-04T23:59:12;12.90;72.40
